KDWX

Details ICAO KDWX
Name DIXON
Region United States
Timezone America/Denver (UTC-7.0)
Plans Departing 1
Arriving 2
Stats Elevation 6,520 ft / 1,987 m (AMSL)
Location 41.036729° -107.495433°
Runways 1
Magnetic Variation 9.595° E
Sunrise 2017-12-16 14:30:11 UTC / 2017-12-16 07:30:11 Local
Sunset 2017-12-16 23:44:05 UTC / 2017-12-16 16:44:05 Local
Advertisement - Login to hide

Runways

ID Width Length Bearing (true) Bearing (mag) Surface Threshold Offset Overrun Length
06 75 ft / 23 m 5,483 ft / 1,671 m 70.79° 61.20° Asphalt 0 ft / 0 m 0 ft / 0 m
24 75 ft / 23 m 5,483 ft / 1,671 m 250.81° 241.22° Asphalt 0 ft / 0 m 0 ft / 0 m

Map

Weather


0- 5 10 15 20 25 30 35+ Temperature / ° C

Clouds and Precipitation
Forecast for 2017-12-17 06:00 UTC. Updated an hour ago

Ground ~20,000 ft ~40,000 ft Winds

METAR

KDWX 170215Z AUTO 07004KT 10SM CLR M03/M09 A2983 RMK AO2 T10301092

TAF

Not found

Frequencies

Recorded 119.42 MHz AWOS A
Unicom 122.90 MHz CTAF
Warning: Do not use this data for real-world aviation or navigation. No guarantee of current accuracy is given.